Time;durP1;ratioP1;P1;durP2;ratioP2;P2;SDS_P1;SDS_P2;PMS_P1;PMS_P2;Temp;Humidity;BMP_temperature;BMP_pressure;BME280_temperature;BME280_humidity;BME280_pressure;Samples;Min_cycle;Max_cycle;Signal;HPM_P1;HPM_P2
2022/11/01 00:00:20;;;;;;;28.02;17.42;;;12.90;99.90;;;;;;5005793;28;20134;-63
2022/11/01 00:02:46;;;;;;;27.70;15.93;;;13.00;99.90;;;;;;5007154;28;20038;-63
2022/11/01 00:05:12;;;;;;;27.88;16.52;;;13.00;99.90;;;;;;5005313;28;20042;-63
2022/11/01 00:07:37;;;;;;;27.83;17.00;;;13.00;99.90;;;;;;4985665;28;20567;-64
2022/11/01 00:10:03;;;;;;;25.85;16.55;;;13.00;99.90;;;;;;4985252;28;20108;-63
2022/11/01 00:12:30;;;;;;;23.05;15.93;;;13.00;99.90;;;;;;4985156;28;20077;-64
2022/11/01 00:14:55;;;;;;;26.23;18.02;;;13.00;99.90;;;;;;4986673;28;20065;-63
2022/11/01 00:17:21;;;;;;;24.73;17.67;;;13.00;99.90;;;;;;4986523;28;20467;-63
2022/11/01 00:19:47;;;;;;;27.60;16.48;;;13.00;99.90;;;;;;4986549;28;20049;-63
2022/11/01 00:22:12;;;;;;;24.30;16.63;;;12.90;99.90;;;;;;4985423;28;20050;-64
2022/11/01 00:24:38;;;;;;;25.17;16.95;;;13.00;99.90;;;;;;4984236;28;20066;-64
2022/11/01 00:27:04;;;;;;;27.38;16.55;;;13.00;99.90;;;;;;4986503;28;20046;-63
2022/11/01 00:29:29;;;;;;;26.42;15.80;;;12.90;99.90;;;;;;4985739;28;20046;-63
2022/11/01 00:31:55;;;;;;;26.58;16.02;;;13.00;99.90;;;;;;4984370;28;20054;-63
2022/11/01 00:34:21;;;;;;;24.90;16.75;;;12.90;99.90;;;;;;4986059;28;20397;-63
2022/11/01 00:36:46;;;;;;;21.48;15.38;;;12.90;99.90;;;;;;4985490;28;20088;-64
2022/11/01 00:39:13;;;;;;;27.02;15.30;;;13.00;99.90;;;;;;4984129;28;20123;-64
2022/11/01 00:41:39;;;;;;;24.17;15.85;;;13.00;99.90;;;;;;4985330;28;20042;-65
2022/11/01 00:44:04;;;;;;;22.55;15.75;;;12.90;99.90;;;;;;4986215;28;20042;-63
2022/11/01 00:46:31;;;;;;;24.95;15.65;;;13.00;99.90;;;;;;4986265;28;20057;-64
2022/11/01 00:48:57;;;;;;;22.60;14.95;;;12.90;99.90;;;;;;4984495;28;20522;-63
2022/11/01 00:51:23;;;;;;;22.98;15.38;;;13.00;99.90;;;;;;4986550;28;20050;-63
2022/11/01 00:53:49;;;;;;;22.67;13.98;;;13.10;99.90;;;;;;4985356;28;20070;-63
2022/11/01 00:56:14;;;;;;;23.50;14.73;;;13.10;99.90;;;;;;5000197;28;20551;-65
2022/11/01 00:58:40;;;;;;;21.83;14.68;;;13.00;99.90;;;;;;4985530;28;20065;-64
2022/11/01 01:01:06;;;;;;;24.45;14.75;;;13.10;99.90;;;;;;4986638;28;20096;-63
2022/11/01 01:03:31;;;;;;;20.73;14.48;;;13.00;99.90;;;;;;4985938;28;20042;-63
2022/11/01 01:05:57;;;;;;;23.75;14.23;;;13.10;99.90;;;;;;4999352;28;20057;-63
2022/11/01 01:08:24;;;;;;;19.40;13.35;;;13.10;99.90;;;;;;5004274;28;20064;-63
2022/11/01 01:10:50;;;;;;;24.17;14.20;;;13.10;99.90;;;;;;5004661;28;20050;-63
2022/11/01 01:13:16;;;;;;;21.48;13.40;;;13.10;99.90;;;;;;5003305;28;20065;-63
2022/11/01 01:15:43;;;;;;;22.90;14.30;;;13.10;99.90;;;;;;5004048;28;20061;-63
2022/11/01 01:18:09;;;;;;;20.20;13.55;;;13.10;99.90;;;;;;5004903;28;20038;-63
2022/11/01 01:20:34;;;;;;;19.10;13.02;;;13.20;99.90;;;;;;5004507;28;20065;-63
2022/11/01 01:23:00;;;;;;;21.48;13.50;;;13.30;99.90;;;;;;5002822;28;20493;-63
2022/11/01 01:25:26;;;;;;;21.17;12.60;;;13.30;99.90;;;;;;5002144;28;20058;-64
2022/11/01 01:27:52;;;;;;;20.48;13.07;;;13.30;99.90;;;;;;5003014;28;20038;-64
2022/11/01 01:30:17;;;;;;;25.35;13.25;;;13.30;99.90;;;;;;5004457;28;20053;-63
2022/11/01 01:32:43;;;;;;;19.00;12.93;;;13.20;99.90;;;;;;5001679;28;20065;-63
2022/11/01 01:35:09;;;;;;;21.27;13.30;;;13.20;99.90;;;;;;5004459;28;20069;-63
2022/11/01 01:37:35;;;;;;;21.20;13.35;;;13.30;99.90;;;;;;5003892;28;20049;-64
2022/11/01 01:40:01;;;;;;;20.17;11.98;;;13.30;99.90;;;;;;5003457;28;20045;-63
2022/11/01 01:42:31;;;;;;;24.00;13.15;;;13.30;99.90;;;;;;5002257;28;20437;-64
2022/11/01 01:44:56;;;;;;;22.67;12.85;;;13.40;99.90;;;;;;5004023;28;20042;-63
2022/11/01 01:47:26;;;;;;;21.42;11.90;;;13.50;99.90;;;;;;5003544;28;20668;-63
2022/11/01 01:50:14;;;;;;;19.83;11.98;;;13.50;99.90;;;;;;5003161;28;20054;-63
2022/11/01 01:53:16;;;;;;;20.17;12.00;;;13.60;99.90;;;;;;5003704;28;20063;-63
2022/11/01 01:55:52;;;;;;;19.75;12.23;;;13.70;99.90;;;;;;5004147;28;20061;-63
2022/11/01 01:58:21;;;;;;;18.17;10.65;;;13.60;99.90;;;;;;5002520;28;20041;-63
2022/11/01 02:00:48;;;;;;;16.67;11.05;;;13.70;99.90;;;;;;5002534;28;20112;-63
2022/11/01 02:03:14;;;;;;;17.63;10.63;;;13.60;99.90;;;;;;5004065;28;20536;-63
2022/11/01 02:05:49;;;;;;;17.75;11.18;;;13.80;99.90;;;;;;5002441;28;20054;-64
2022/11/01 02:08:25;;;;;;;18.33;10.70;;;13.70;99.90;;;;;;5002380;28;20126;-63
2022/11/01 02:10:52;;;;;;;14.77;10.20;;;13.60;99.90;;;;;;5003329;28;20072;-63
2022/11/01 02:13:18;;;;;;;18.90;11.00;;;13.60;99.90;;;;;;5002204;28;20054;-64
2022/11/01 02:16:13;;;;;;;15.20;10.60;;;13.80;99.90;;;;;;5003049;28;20054;-65
2022/11/01 02:19:01;;;;;;;20.13;10.10;;;13.60;99.90;;;;;;5069920;23;20162;-63
2022/11/01 02:21:43;;;;;;;24.75;10.65;;;13.70;99.90;;;;;;5009006;28;20419;-63
2022/11/01 02:24:47;;;;;;;20.58;10.50;;;13.60;99.90;;;;;;4986509;28;20045;-63
2022/11/01 02:27:33;;;;;;;17.02;10.10;;;13.60;99.90;;;;;;5002686;28;20045;-64
2022/11/01 02:30:07;;;;;;;19.42;9.93;;;13.70;99.90;;;;;;5002753;28;20129;-63
2022/11/01 02:32:39;;;;;;;14.50;10.02;;;13.70;99.90;;;;;;5002370;28;20686;-63
2022/11/01 02:35:20;;;;;;;13.80;9.35;;;13.70;99.90;;;;;;5003023;28;20106;-63
2022/11/01 02:38:07;;;;;;;15.27;9.55;;;13.70;99.90;;;;;;5016451;28;20046;-64
2022/11/01 02:40:45;;;;;;;15.50;9.48;;;13.80;99.90;;;;;;5022322;28;20037;-63
2022/11/01 02:43:22;;;;;;;13.85;8.48;;;13.80;99.90;;;;;;5022455;28;20115;-63
2022/11/01 02:45:49;;;;;;;16.42;8.88;;;13.80;99.90;;;;;;5004880;28;20049;-63
2022/11/01 02:48:20;;;;;;;18.38;9.02;;;14.10;99.90;;;;;;5005537;28;20434;-64
2022/11/01 02:50:51;;;;;;;18.08;8.85;;;13.90;99.90;;;;;;5022023;28;20041;-65
2022/11/01 02:53:17;;;;;;;15.45;8.68;;;13.90;99.90;;;;;;5022098;28;20049;-63
2022/11/01 02:55:42;;;;;;;16.00;9.00;;;13.90;99.90;;;;;;5023234;28;20044;-64
2022/11/01 02:58:26;;;;;;;17.80;8.93;;;13.90;99.90;;;;;;5021103;28;20419;-64
2022/11/01 03:00:51;;;;;;;15.50;9.32;;;13.80;99.90;;;;;;5022766;28;20295;-63
2022/11/01 03:03:31;;;;;;;16.58;8.10;;;13.80;99.90;;;;;;5021998;28;20140;-64
2022/11/01 03:05:59;;;;;;;17.48;9.32;;;13.90;99.90;;;;;;5021601;28;20459;-63
2022/11/01 03:08:45;;;;;;;14.43;8.73;;;13.90;99.90;;;;;;5019566;28;20053;-63
2022/11/01 03:11:17;;;;;;;14.73;8.52;;;13.90;99.90;;;;;;5021830;28;20041;-63
2022/11/01 03:14:20;;;;;;;16.70;9.23;;;13.90;99.90;;;;;;5022402;28;20053;-63
2022/11/01 03:16:53;;;;;;;15.05;8.68;;;13.80;99.90;;;;;;5022033;28;20099;-63
2022/11/01 03:19:33;;;;;;;14.35;8.57;;;13.90;99.90;;;;;;5021900;28;20053;-64
2022/11/01 03:22:11;;;;;;;14.02;7.88;;;13.90;99.90;;;;;;5022564;28;20124;-64
2022/11/01 03:24:46;;;;;;;19.75;8.43;;;14.00;99.90;;;;;;4987727;28;20045;-63
2022/11/01 03:27:16;;;;;;;17.27;8.40;;;14.10;99.90;;;;;;5022385;28;20139;-64
2022/11/01 03:29:45;;;;;;;15.45;8.30;;;14.10;99.90;;;;;;5003669;28;20228;-64
2022/11/01 03:32:13;;;;;;;16.52;8.30;;;14.10;99.90;;;;;;5021546;28;20068;-64
2022/11/01 03:34:40;;;;;;;12.82;7.43;;;14.20;99.90;;;;;;5021413;28;20048;-63
2022/11/01 03:37:10;;;;;;;12.77;7.97;;;14.10;99.90;;;;;;5022032;28;20635;-63
2022/11/01 03:39:47;;;;;;;12.55;7.68;;;14.20;99.90;;;;;;5002642;28;20054;-64
2022/11/01 03:42:19;;;;;;;11.88;7.88;;;14.30;99.90;;;;;;5021937;28;20107;-64
2022/11/01 03:44:54;;;;;;;12.27;6.85;;;14.30;99.90;;;;;;5021493;28;20180;-63
2022/11/01 03:47:20;;;;;;;18.80;7.70;;;14.30;99.90;;;;;;5021124;28;20037;-63
2022/11/01 03:49:46;;;;;;;13.23;7.28;;;14.50;99.90;;;;;;5021999;28;20073;-64
2022/11/01 03:52:12;;;;;;;14.18;7.30;;;14.50;99.90;;;;;;5021817;28;20077;-63
2022/11/01 03:54:37;;;;;;;12.77;7.45;;;14.60;99.90;;;;;;5019896;28;20053;-63
2022/11/01 03:57:03;;;;;;;9.63;6.82;;;14.60;99.90;;;;;;5021589;28;20525;-63
2022/11/01 03:59:29;;;;;;;11.60;6.85;;;14.60;99.90;;;;;;5004491;28;20045;-63
2022/11/01 04:01:54;;;;;;;14.68;7.10;;;14.70;99.90;;;;;;5021570;28;20115;-63
2022/11/01 04:04:20;;;;;;;11.60;7.50;;;14.60;99.90;;;;;;5020087;28;20053;-64
2022/11/01 04:06:46;;;;;;;11.23;6.78;;;14.60;99.90;;;;;;5021432;28;20038;-63
2022/11/01 04:09:11;;;;;;;10.15;6.72;;;14.70;99.90;;;;;;5019799;28;20045;-64
2022/11/01 04:11:37;;;;;;;11.23;6.75;;;14.70;99.90;;;;;;5019904;28;20054;-64
2022/11/01 04:22:16;;;;;;;12.65;6.85;;;14.70;99.90;;;;;;5021870;28;20088;-63
2022/11/01 04:24:41;;;;;;;14.15;7.03;;;14.70;99.90;;;;;;5003214;28;20068;-63
2022/11/01 04:27:07;;;;;;;11.60;5.60;;;14.70;99.90;;;;;;5022469;28;20037;-63
2022/11/01 04:29:33;;;;;;;13.18;5.70;;;14.80;99.90;;;;;;5021841;28;20163;-64
2022/11/01 04:31:58;;;;;;;11.35;6.13;;;14.80;99.90;;;;;;5020936;28;20042;-66
2022/11/01 04:34:42;;;;;;;11.40;5.85;;;14.80;99.90;;;;;;5021556;28;20041;-63
2022/11/01 04:37:09;;;;;;;8.90;6.35;;;14.90;99.90;;;;;;5021980;28;20045;-63
2022/11/01 04:39:34;;;;;;;10.77;5.63;;;14.80;99.90;;;;;;5001923;28;20553;-63
2022/11/01 04:42:00;;;;;;;11.85;6.20;;;14.90;99.90;;;;;;5023466;28;20045;-63
2022/11/01 04:44:26;;;;;;;9.80;4.55;;;14.80;99.90;;;;;;5024670;28;20073;-64
2022/11/01 04:46:51;;;;;;;12.05;5.82;;;14.90;99.90;;;;;;5025242;28;20046;-63
2022/11/01 04:49:17;;;;;;;12.65;5.88;;;14.90;99.90;;;;;;5025166;28;20046;-63
2022/11/01 04:51:43;;;;;;;7.70;4.28;;;14.90;99.90;;;;;;5025943;28;20084;-63
2022/11/01 04:54:08;;;;;;;11.02;6.00;;;14.80;99.90;;;;;;5024510;28;20088;-63
2022/11/01 04:56:34;;;;;;;9.00;6.00;;;14.90;99.90;;;;;;5024633;28;20084;-63
2022/11/01 04:59:00;;;;;;;8.10;4.00;;;14.90;99.90;;;;;;5024883;28;20045;-63
2022/11/01 05:01:25;;;;;;;11.77;6.13;;;14.90;99.90;;;;;;5024708;28;20532;-63
2022/11/01 05:03:51;;;;;;;10.57;5.32;;;15.00;99.90;;;;;;5025246;28;20033;-63
2022/11/01 05:06:17;;;;;;;10.75;5.95;;;14.90;99.90;;;;;;5023656;28;20041;-64
2022/11/01 05:08:42;;;;;;;10.13;5.72;;;15.00;99.90;;;;;;5024014;28;20046;-64
2022/11/01 05:11:08;;;;;;;12.13;6.32;;;14.90;99.90;;;;;;5025185;28;20546;-63
2022/11/01 05:13:34;;;;;;;11.75;6.20;;;15.00;99.90;;;;;;5025535;28;20114;-64
2022/11/01 05:16:03;;;;;;;9.73;5.32;;;15.00;99.90;;;;;;5023662;28;20053;-63
2022/11/01 05:18:29;;;;;;;10.63;5.55;;;14.90;99.90;;;;;;5006772;28;20175;-63
2022/11/01 05:20:56;;;;;;;12.95;5.15;;;15.00;99.90;;;;;;5024412;28;20045;-64
2022/11/01 05:23:21;;;;;;;10.02;5.90;;;15.00;99.90;;;;;;5023546;28;20050;-63
2022/11/01 05:25:47;;;;;;;10.75;3.95;;;15.00;99.90;;;;;;5006530;28;20060;-63
2022/11/01 05:28:13;;;;;;;9.30;5.40;;;15.00;99.90;;;;;;5024104;28;20037;-63
2022/11/01 05:30:40;;;;;;;11.35;5.90;;;14.90;99.90;;;;;;5024241;28;20725;-63
2022/11/01 05:33:07;;;;;;;11.68;5.50;;;15.00;99.90;;;;;;5023661;28;20064;-64
2022/11/01 05:35:34;;;;;;;11.25;6.38;;;15.00;99.90;;;;;;5006574;28;20084;-63
2022/11/01 05:38:02;;;;;;;12.55;5.47;;;14.90;99.90;;;;;;5022843;28;20068;-64
2022/11/01 05:40:27;;;;;;;10.70;6.57;;;14.90;99.90;;;;;;5022976;28;20614;-63
2022/11/01 05:42:53;;;;;;;14.30;5.82;;;14.90;99.90;;;;;;5023697;28;20515;-64
2022/11/01 05:45:19;;;;;;;11.48;5.93;;;14.90;99.90;;;;;;5023676;28;20033;-64
2022/11/01 05:47:45;;;;;;;9.90;4.60;;;14.80;99.90;;;;;;5023488;28;20104;-64
2022/11/01 05:50:13;;;;;;;12.73;5.95;;;14.90;99.90;;;;;;5023280;28;20053;-63
2022/11/01 05:52:38;;;;;;;11.38;5.60;;;15.00;99.90;;;;;;5003962;28;20037;-63
2022/11/01 05:55:06;;;;;;;11.50;5.97;;;14.90;99.90;;;;;;5023550;28;20030;-63
2022/11/01 05:57:31;;;;;;;9.52;5.63;;;14.80;99.90;;;;;;5023117;28;20049;-64
2022/11/01 05:59:57;;;;;;;8.68;4.25;;;14.80;99.90;;;;;;5024234;28;20499;-63
2022/11/01 06:02:23;;;;;;;10.45;5.38;;;14.90;99.90;;;;;;5025097;28;20060;-63
2022/11/01 06:04:48;;;;;;;10.30;5.32;;;14.90;99.90;;;;;;5023365;28;20046;-63
2022/11/01 06:07:14;;;;;;;9.02;4.90;;;15.10;99.90;;;;;;5005493;28;20050;-63
2022/11/01 06:09:40;;;;;;;11.73;4.45;;;15.00;99.90;;;;;;5023461;28;20041;-63
2022/11/01 06:12:06;;;;;;;12.40;5.30;;;15.10;99.90;;;;;;5023002;28;20041;-63
2022/11/01 06:14:31;;;;;;;9.68;3.83;;;15.30;99.90;;;;;;5022523;28;20048;-63
2022/11/01 06:16:57;;;;;;;7.25;3.38;;;15.30;99.90;;;;;;5022574;28;20653;-63
2022/11/01 06:19:22;;;;;;;7.70;3.95;;;15.50;99.90;;;;;;5022895;28;20079;-63
2022/11/01 06:21:48;;;;;;;7.85;4.30;;;15.60;99.90;;;;;;5022787;28;20075;-63
2022/11/01 06:24:14;;;;;;;9.07;4.60;;;15.60;99.90;;;;;;5021045;28;20103;-63
2022/11/01 06:26:39;;;;;;;7.03;3.45;;;15.60;99.90;;;;;;5022354;28;20044;-63
2022/11/01 06:29:05;;;;;;;10.05;4.10;;;15.70;99.90;;;;;;5020728;28;20046;-63
2022/11/01 06:31:31;;;;;;;6.07;3.20;;;15.80;99.90;;;;;;5005208;28;20047;-64
2022/11/01 06:33:56;;;;;;;9.40;4.35;;;15.80;99.90;;;;;;5022870;28;20507;-63
2022/11/01 06:36:22;;;;;;;8.48;3.30;;;15.70;99.90;;;;;;5022579;28;20099;-64
2022/11/01 06:38:48;;;;;;;6.88;2.88;;;15.50;99.90;;;;;;5022226;28;20449;-64
2022/11/01 06:41:14;;;;;;;5.60;1.92;;;15.50;99.90;;;;;;5022167;28;20041;-64
2022/11/01 06:43:40;;;;;;;3.70;1.20;;;15.50;99.90;;;;;;5023370;28;20107;-64
2022/11/01 06:46:06;;;;;;;4.93;1.80;;;15.50;99.90;;;;;;5023262;28;20045;-63
2022/11/01 06:48:32;;;;;;;7.68;1.50;;;15.30;99.90;;;;;;5022930;28;20083;-64
2022/11/01 06:51:01;;;;;;;6.95;1.70;;;15.20;99.90;;;;;;5023025;28;20076;-64
2022/11/01 06:53:26;;;;;;;4.00;1.23;;;15.10;99.90;;;;;;5022430;28;20042;-63
2022/11/01 06:55:52;;;;;;;3.97;1.05;;;15.00;99.90;;;;;;5022522;28;20095;-64
2022/11/01 06:58:18;;;;;;;5.95;1.52;;;14.90;99.90;;;;;;5021547;28;20095;-64
2022/11/01 07:00:43;;;;;;;5.93;1.30;;;14.80;99.90;;;;;;5022665;28;20038;-63
2022/11/01 07:03:11;;;;;;;3.63;1.48;;;14.80;99.90;;;;;;5022342;28;20042;-63
2022/11/01 07:05:38;;;;;;;2.95;1.27;;;14.70;99.90;;;;;;5022211;28;20033;-64
2022/11/01 07:08:11;;;;;;;3.45;1.20;;;14.60;99.90;;;;;;5020328;28;20037;-63
2022/11/01 07:10:38;;;;;;;5.00;1.25;;;14.50;99.90;;;;;;5022589;28;20439;-63
2022/11/01 07:13:06;;;;;;;2.78;1.00;;;14.50;99.90;;;;;;5022183;28;20045;-63
2022/11/01 07:15:32;;;;;;;3.55;1.30;;;14.50;99.90;;;;;;5021265;28;20041;-64
2022/11/01 07:18:00;;;;;;;2.90;1.00;;;14.40;99.90;;;;;;5023148;28;20045;-63
2022/11/01 07:20:27;;;;;;;3.22;1.30;;;14.30;99.90;;;;;;5005101;28;20053;-63
2022/11/01 07:23:03;;;;;;;5.13;1.55;;;14.30;99.90;;;;;;5020595;28;20049;-64
2022/11/01 07:25:30;;;;;;;3.70;1.40;;;14.30;99.90;;;;;;5022409;28;20451;-64
2022/11/01 07:27:56;;;;;;;15.10;1.70;;;14.30;99.90;;;;;;5022791;28;20053;-64
2022/11/01 07:30:23;;;;;;;3.70;1.40;;;14.30;99.90;;;;;;5020222;28;20045;-64
2022/11/01 07:32:55;;;;;;;5.97;1.13;;;14.30;99.90;;;;;;5021980;28;20772;-64
2022/11/01 07:35:20;;;;;;;6.53;1.75;;;14.30;99.90;;;;;;5022193;28;20045;-64
2022/11/01 07:37:46;;;;;;;4.10;1.08;;;14.30;99.90;;;;;;5020445;28;20057;-64
2022/11/01 07:40:12;;;;;;;5.03;1.10;;;14.40;99.90;;;;;;5004076;28;20550;-64
2022/11/01 07:42:42;;;;;;;4.63;1.48;;;14.40;99.90;;;;;;5022684;28;20591;-64
2022/11/01 07:45:09;;;;;;;5.18;1.52;;;14.40;99.90;;;;;;4988097;28;20550;-64
2022/11/01 07:47:35;;;;;;;6.13;1.38;;;14.40;99.90;;;;;;5021278;28;20486;-64
2022/11/01 07:50:01;;;;;;;5.07;1.50;;;14.40;99.90;;;;;;5022235;28;20045;-64
2022/11/01 07:52:26;;;;;;;3.60;1.00;;;14.40;99.90;;;;;;5021443;28;20037;-64
2022/11/01 07:54:52;;;;;;;3.20;1.08;;;14.50;99.90;;;;;;5021162;28;20144;-64
2022/11/01 07:57:17;;;;;;;4.90;1.35;;;14.50;99.90;;;;;;5021827;28;20049;-63
2022/11/01 07:59:43;;;;;;;4.28;0.90;;;14.60;99.90;;;;;;5021993;28;20053;-63
2022/11/01 08:02:09;;;;;;;4.70;1.10;;;14.60;99.90;;;;;;5007874;28;20049;-64
2022/11/01 08:04:35;;;;;;;3.35;0.80;;;14.70;99.90;;;;;;4987629;28;20641;-64
2022/11/01 08:07:00;;;;;;;3.63;0.80;;;14.70;99.90;;;;;;5022088;28;20215;-64
2022/11/01 08:09:26;;;;;;;5.68;1.10;;;14.80;99.90;;;;;;5021249;28;20048;-64
2022/11/01 08:11:52;;;;;;;4.18;0.90;;;14.70;99.90;;;;;;5021919;28;20041;-65
2022/11/01 08:14:17;;;;;;;1.58;0.55;;;14.80;99.90;;;;;;5021190;28;20045;-64
2022/11/01 08:16:46;;;;;;;6.78;1.38;;;14.80;99.90;;;;;;5005939;28;20515;-63
2022/11/01 08:19:12;;;;;;;5.47;0.93;;;14.90;99.90;;;;;;5007848;28;20218;-65
2022/11/01 08:21:38;;;;;;;7.35;1.30;;;14.90;99.90;;;;;;5007830;28;20630;-63
2022/11/01 08:24:03;;;;;;;6.85;1.10;;;14.90;99.90;;;;;;5025838;28;20530;-64
2022/11/01 08:26:29;;;;;;;4.60;1.30;;;14.90;99.90;;;;;;5026233;28;20120;-63
2022/11/01 08:28:55;;;;;;;3.42;0.98;;;14.90;99.90;;;;;;5024480;28;20083;-63
2022/11/01 08:31:20;;;;;;;5.57;1.50;;;15.00;99.90;;;;;;5024940;28;20053;-64
2022/11/01 08:33:46;;;;;;;5.35;1.25;;;15.00;99.90;;;;;;5025350;28;20068;-64
2022/11/01 08:36:12;;;;;;;6.00;1.38;;;15.00;99.90;;;;;;5025417;28;20455;-63
2022/11/01 08:38:37;;;;;;;8.55;1.33;;;15.00;99.90;;;;;;4989751;28;20049;-64
2022/11/01 08:41:03;;;;;;;8.60;1.17;;;15.10;99.90;;;;;;5025114;28;20041;-64
2022/11/01 08:43:29;;;;;;;5.03;1.40;;;15.20;99.90;;;;;;5025605;28;20378;-64
2022/11/01 08:45:57;;;;;;;5.80;1.20;;;15.10;99.90;;;;;;5024200;28;20045;-65
2022/11/01 08:48:23;;;;;;;8.65;1.65;;;15.10;99.90;;;;;;5024135;28;20112;-64
2022/11/01 08:50:49;;;;;;;5.28;0.90;;;15.00;99.90;;;;;;5023820;28;20690;-64
2022/11/01 08:53:14;;;;;;;9.27;1.70;;;15.00;99.90;;;;;;5023979;28;20087;-65
2022/11/01 08:55:40;;;;;;;9.50;2.05;;;15.00;99.90;;;;;;5024590;28;20056;-65
2022/11/01 08:58:06;;;;;;;10.48;2.05;;;14.90;99.90;;;;;;5007081;28;20060;-65
2022/11/01 09:00:33;;;;;;;13.02;2.65;;;14.90;99.90;;;;;;5025358;28;20042;-64
2022/11/01 09:02:58;;;;;;;10.27;2.20;;;14.80;99.90;;;;;;5007237;28;20053;-66
2022/11/01 09:05:24;;;;;;;7.72;1.98;;;14.70;99.90;;;;;;5005771;28;20486;-64
2022/11/01 09:07:55;;;;;;;14.13;2.50;;;14.70;99.90;;;;;;5007186;28;20812;-64
2022/11/01 09:10:21;;;;;;;10.32;1.42;;;14.70;99.90;;;;;;5025166;28;20120;-63
2022/11/01 09:12:47;;;;;;;8.43;1.80;;;14.70;99.90;;;;;;5006279;28;20148;-64
2022/11/01 09:15:12;;;;;;;11.07;1.60;;;14.80;99.90;;;;;;5025173;28;20121;-65
2022/11/01 09:17:38;;;;;;;9.60;2.08;;;15.20;99.90;;;;;;5024537;28;20041;-64
2022/11/01 09:20:04;;;;;;;11.65;2.25;;;15.40;99.90;;;;;;5025023;28;20049;-64
2022/11/01 09:22:30;;;;;;;5.82;1.60;;;15.50;99.90;;;;;;5023076;28;20054;-64
2022/11/01 09:24:57;;;;;;;11.00;2.17;;;15.60;99.90;;;;;;5006947;28;20041;-64
2022/11/01 09:27:23;;;;;;;11.98;2.30;;;15.90;99.90;;;;;;5023613;28;20232;-64
2022/11/01 09:29:49;;;;;;;10.27;2.15;;;15.90;99.90;;;;;;5006441;28;20691;-64
2022/11/01 09:32:14;;;;;;;6.20;1.23;;;16.00;99.90;;;;;;5024031;28;20112;-63
2022/11/01 09:34:40;;;;;;;11.90;2.05;;;15.90;99.90;;;;;;5024496;28;20037;-64
2022/11/01 09:37:05;;;;;;;7.88;2.25;;;16.00;99.90;;;;;;5024263;28;20496;-63
2022/11/01 09:39:31;;;;;;;6.88;1.98;;;16.10;99.90;;;;;;5023301;28;20119;-63
2022/11/01 09:42:09;;;;;;;8.52;2.08;;;16.20;99.90;;;;;;5024646;28;20041;-63
2022/11/01 09:44:42;;;;;;;9.93;2.20;;;16.10;99.90;;;;;;5022784;28;20146;-64
2022/11/01 09:47:16;;;;;;;8.45;1.80;;;16.20;99.90;;;;;;5024277;28;20135;-63
2022/11/01 09:49:47;;;;;;;10.52;1.88;;;16.40;99.90;;;;;;5024400;28;20525;-64
2022/11/01 09:52:20;;;;;;;11.63;2.13;;;16.30;99.90;;;;;;5022180;28;20251;-63
2022/11/01 09:54:46;;;;;;;9.52;2.22;;;16.40;99.90;;;;;;5023062;28;20053;-63
2022/11/01 09:57:34;;;;;;;12.60;2.78;;;16.60;99.90;;;;;;5024716;28;20083;-64
2022/11/01 10:00:15;;;;;;;13.63;2.53;;;16.60;99.90;;;;;;5006141;28;20045;-64
2022/11/01 10:02:59;;;;;;;8.38;2.20;;;16.40;99.90;;;;;;5024503;28;20140;-64
2022/11/01 10:05:25;;;;;;;8.55;1.65;;;16.50;99.90;;;;;;5024427;28;20045;-63
2022/11/01 10:07:59;;;;;;;11.38;2.28;;;16.30;99.90;;;;;;5023814;28;20056;-63
2022/11/01 10:10:49;;;;;;;9.13;2.22;;;16.30;99.90;;;;;;5024166;28;20560;-65
2022/11/01 10:13:52;;;;;;;8.07;2.10;;;16.30;99.90;;;;;;5006088;28;20057;-63
2022/11/01 10:16:40;;;;;;;6.55;1.40;;;16.60;99.90;;;;;;5022867;28;20056;-64
2022/11/01 10:19:14;;;;;;;12.25;2.13;;;16.70;99.90;;;;;;5006104;28;20088;-63
2022/11/01 10:21:47;;;;;;;10.65;2.25;;;16.90;99.90;;;;;;5024233;28;20053;-65
2022/11/01 10:24:40;;;;;;;12.75;2.28;;;16.50;99.90;;;;;;5023880;28;20081;-64
2022/11/01 10:27:15;;;;;;;9.60;2.03;;;17.10;99.90;;;;;;5006771;28;20049;-64
2022/11/01 10:29:47;;;;;;;8.65;1.92;;;16.90;99.90;;;;;;5005579;28;20148;-64
2022/11/01 10:32:24;;;;;;;14.77;2.70;;;16.70;99.90;;;;;;5005983;28;20064;-65
2022/11/01 10:34:51;;;;;;;10.77;2.42;;;16.40;99.90;;;;;;5006039;28;20044;-63
2022/11/01 10:37:28;;;;;;;9.25;1.48;;;16.50;99.90;;;;;;5022438;28;20053;-64
2022/11/01 10:40:00;;;;;;;11.07;2.55;;;16.80;99.90;;;;;;5022826;28;20095;-63
2022/11/01 10:42:27;;;;;;;11.70;2.35;;;16.60;99.90;;;;;;5023671;28;20080;-63
2022/11/01 10:45:07;;;;;;;8.45;1.75;;;16.40;99.90;;;;;;5022370;28;20068;-62
2022/11/01 10:47:33;;;;;;;11.32;1.90;;;16.40;99.90;;;;;;5023264;28;20102;-63
2022/11/01 10:50:11;;;;;;;8.05;1.92;;;16.70;99.90;;;;;;5021945;28;20128;-63
2022/11/01 10:53:06;;;;;;;13.93;2.50;;;16.40;99.90;;;;;;5022586;28;20080;-64
2022/11/01 10:55:44;;;;;;;8.60;2.28;;;16.40;99.90;;;;;;5020856;28;20140;-63
2022/11/01 10:58:22;;;;;;;6.45;1.60;;;16.70;99.90;;;;;;5021911;28;20111;-64
2022/11/01 11:00:49;;;;;;;14.30;2.30;;;16.70;99.90;;;;;;5005044;28;20053;-64
2022/11/01 11:03:28;;;;;;;13.63;2.42;;;16.50;99.90;;;;;;5023094;28;20049;-64
2022/11/01 11:05:55;;;;;;;10.18;2.45;;;16.20;99.90;;;;;;5022100;28;20055;-63
2022/11/01 11:08:23;;;;;;;8.32;1.50;;;16.10;99.90;;;;;;5003335;28;20089;-63
2022/11/01 11:10:49;;;;;;;11.98;2.40;;;15.90;99.90;;;;;;5022734;28;20072;-64
2022/11/01 11:13:20;;;;;;;9.25;1.80;;;15.90;99.90;;;;;;5015463;28;20034;-63
2022/11/01 11:15:55;;;;;;;12.52;2.40;;;15.90;99.90;;;;;;5002843;28;20091;-63
2022/11/01 11:18:32;;;;;;;9.15;1.90;;;15.70;99.90;;;;;;5014232;28;20236;-63
2022/11/01 11:21:04;;;;;;;7.45;2.38;;;15.80;99.90;;;;;;5004097;28;20049;-64
2022/11/01 11:23:33;;;;;;;10.57;1.65;;;15.60;99.90;;;;;;5019912;28;20561;-63
2022/11/01 11:26:08;;;;;;;5.05;1.23;;;15.60;99.90;;;;;;5021061;28;20398;-64
2022/11/01 11:28:43;;;;;;;11.48;2.53;;;15.50;99.90;;;;;;5021048;28;20045;-64
2022/11/01 11:31:23;;;;;;;10.32;2.42;;;15.60;99.90;;;;;;4984119;28;20064;-64
2022/11/01 11:34:22;;;;;;;9.68;2.38;;;15.50;99.90;;;;;;5002558;28;20053;-64
2022/11/01 11:36:50;;;;;;;14.88;3.03;;;15.60;99.90;;;;;;5000429;28;20080;-63
2022/11/01 11:39:34;;;;;;;12.93;2.60;;;15.60;99.90;;;;;;4983950;28;20054;-70
2022/11/01 11:42:17;;;;;;;15.30;2.70;;;15.50;99.90;;;;;;5003596;28;20052;-66
2022/11/01 11:44:49;;;;;;;10.15;2.28;;;15.60;99.90;;;;;;5003081;28;20077;-64
2022/11/01 11:47:23;;;;;;;14.45;2.47;;;15.60;99.90;;;;;;5004110;28;20083;-64
2022/11/01 11:49:52;;;;;;;13.02;2.40;;;15.90;99.90;;;;;;5003473;28;20480;-64
2022/11/01 11:52:35;;;;;;;11.10;2.40;;;16.10;99.90;;;;;;5002343;28;20235;-64
2022/11/01 11:55:01;;;;;;;14.82;3.05;;;16.20;99.90;;;;;;4987185;28;20045;-64
2022/11/01 11:57:29;;;;;;;8.52;2.15;;;16.30;99.90;;;;;;5002706;28;20554;-64
2022/11/01 12:00:04;;;;;;;7.57;1.85;;;16.30;99.90;;;;;;5020894;28;20050;-64
2022/11/01 12:02:36;;;;;;;11.07;2.25;;;16.20;99.90;;;;;;5021232;28;20133;-64
2022/11/01 12:05:05;;;;;;;16.58;2.85;;;16.20;99.90;;;;;;5002262;28;20483;-63
2022/11/01 12:07:36;;;;;;;9.52;2.75;;;16.20;99.90;;;;;;5011699;28;20052;-63
2022/11/01 12:10:25;;;;;;;8.32;1.63;;;16.30;99.90;;;;;;5020779;28;20125;-63
2022/11/01 12:12:53;;;;;;;10.48;2.17;;;16.50;99.90;;;;;;5021403;28;20135;-63
2022/11/01 12:15:28;;;;;;;12.07;2.90;;;16.50;99.90;;;;;;5020773;28;20041;-63
2022/11/01 12:17:54;;;;;;;10.98;2.63;;;16.60;99.90;;;;;;5020037;28;20634;-64
2022/11/01 12:20:24;;;;;;;10.85;1.90;;;16.70;99.90;;;;;;5020161;28;20050;-63
2022/11/01 12:23:09;;;;;;;8.20;2.17;;;16.80;99.90;;;;;;4985373;28;20052;-64
2022/11/01 12:25:38;;;;;;;11.68;2.80;;;16.40;99.90;;;;;;5002911;28;20085;-62
2022/11/01 12:28:16;;;;;;;12.00;3.05;;;16.50;99.90;;;;;;5019874;28;20580;-64
2022/11/01 12:30:43;;;;;;;9.55;2.28;;;16.20;99.90;;;;;;5019747;28;20050;-65
2022/11/01 12:33:29;;;;;;;8.50;1.90;;;16.20;99.90;;;;;;5002667;28;20095;-64
2022/11/01 12:35:57;;;;;;;10.75;2.00;;;16.20;99.90;;;;;;5002794;28;20758;-63
2022/11/01 12:38:42;;;;;;;7.53;1.35;;;16.30;99.90;;;;;;5019005;28;20061;-59
2022/11/01 12:41:30;;;;;;;12.00;2.67;;;16.30;99.90;;;;;;5002919;28;20060;-63
2022/11/01 12:44:04;;;;;;;6.68;1.83;;;16.30;99.90;;;;;;5020428;28;20132;-63
2022/11/01 12:46:56;;;;;;;13.02;2.15;;;16.30;99.90;;;;;;5021247;28;20120;-64
2022/11/01 12:49:34;;;;;;;8.23;2.05;;;16.40;99.90;;;;;;5002738;28;20057;-68
2022/11/01 12:52:31;;;;;;;11.27;2.42;;;16.30;99.90;;;;;;4970454;28;20048;-68
2022/11/01 12:55:07;;;;;;;11.63;2.30;;;16.30;99.90;;;;;;5020827;28;20079;-68
2022/11/01 12:57:33;;;;;;;13.20;2.28;;;16.50;99.90;;;;;;5019722;28;20080;-68
2022/11/01 13:00:00;;;;;;;10.88;2.15;;;16.60;99.90;;;;;;5020326;28;20068;-68